Current | Forecast
Updated: 12:24 AM JST on June 29, 2017
Observed at Shizuhama AB, Japan
Temperature 70°F
Humidity 100%
Dew Point 70°F
Wind NW at 2 mph
Pressure 29.92 in (Steady)
Conditions Mostly Cloudy
Visibility 5.0 miles
UV 0 out of 16
Clouds (FEW) : 1500 ft
Mostly Cloudy (BKN) : 2500 ft
Yesterday's Maximum 73°F
Yesterday's Minimum 70°F approx.
Yesterday's Cooling Degree Days 7 approx.
Sunrise4:33 AM JST
Sunset7:03 PM JST
Moon Rise9:55 AM JST
Moon Set10:58 PM JST
Moon PhaseMoon Phase
Waxing Crescent
Raw METARSPECI RJNY 281524Z 31002KT 8000 FEW015 BKN025 21/21 Q1013 RMK 1CU015 5CU025 A2994


Monday
. High: 77° F.
Tuesday
. High: 75° F.
Wednesday
. High: 69° F.
Thursday
. High: 77° F.
Friday
. High: 75° F.
Saturday
. High: 82° F.
Sunday
. High: 75° F.
Monday
. High: 77° F.

Units: English | Metric

Find the Weather for any City, State or Zipcode, or Country:

U.S. State List | Severe Weather | Tropical Storms | Ski Conditions
United States | Canada | Central America | South America | Asia | Europe | Australia | Africa | Islands

Weather Underground

© Copyright 2017
The Weather Company, LLC